Time;durP1;ratioP1;P1;durP2;ratioP2;P2;SDS_P1;SDS_P2;PMS_P1;PMS_P2;Temp;Humidity;BMP_temperature;BMP_pressure;BME280_temperature;BME280_humidity;BME280_pressure;Samples;Min_cycle;Max_cycle;Signal;HPM_P1;HPM_P2
2023/08/26 00:00:40;;;;;;;;;;;23.10;99.90;;;;;;5094697;28;20619;-71
2023/08/26 00:03:06;;;;;;;;;;;23.30;99.90;;;;;;5095087;28;20504;-72
2023/08/26 00:05:33;;;;;;;;;;;22.80;99.90;;;;;;5095413;28;20628;-72
2023/08/26 00:08:01;;;;;;;;;;;22.70;99.90;;;;;;5094770;28;20160;-70
2023/08/26 00:10:27;;;;;;;;;;;23.20;99.90;;;;;;5094680;28;20167;-70
2023/08/26 00:12:54;;;;;;;;;;;23.60;99.90;;;;;;5094763;28;20142;-69
2023/08/26 00:15:22;;;;;;;;;;;24.10;99.90;;;;;;5094009;28;20167;-71
2023/08/26 00:17:49;;;;;;;;;;;23.90;99.90;;;;;;5094722;28;20146;-72
2023/08/26 00:20:16;;;;;;;;;;;24.10;99.90;;;;;;5094765;28;20314;-71
2023/08/26 00:22:43;;;;;;;;;;;23.40;99.90;;;;;;5094773;28;20163;-72
2023/08/26 00:25:10;;;;;;;;;;;22.70;99.90;;;;;;5094805;28;20182;-72
2023/08/26 00:27:37;;;;;;;;;;;23.00;99.90;;;;;;5094297;28;20532;-72
2023/08/26 00:30:04;;;;;;;;;;;23.30;99.90;;;;;;5076144;28;20177;-69
2023/08/26 00:32:31;;;;;;;;;;;23.90;99.90;;;;;;5094242;28;20518;-68
2023/08/26 00:34:58;;;;;;;;;;;24.80;99.90;;;;;;5094274;28;20134;-68
2023/08/26 00:37:25;;;;;;;;;;;24.80;99.90;;;;;;5094172;28;20259;-68
2023/08/26 00:39:52;;;;;;;;;;;24.80;99.90;;;;;;5094547;28;20648;-71
2023/08/26 00:42:19;;;;;;;;;;;25.00;99.90;;;;;;5094044;28;20194;-70
2023/08/26 00:44:45;;;;;;;;;;;24.90;99.90;;;;;;5094291;28;20239;-70
2023/08/26 00:47:12;;;;;;;;;;;25.10;99.90;;;;;;5094311;28;20180;-68
2023/08/26 00:49:39;;;;;;;;;;;25.20;99.90;;;;;;5093807;28;20631;-69
2023/08/26 00:52:06;;;;;;;;;;;25.40;99.90;;;;;;5094231;28;20173;-71
2023/08/26 00:54:35;;;;;;;;;;;25.40;99.90;;;;;;5094136;28;20164;-69
2023/08/26 00:57:05;;;;;;;;;;;26.00;99.90;;;;;;5109605;28;20625;-69
2023/08/26 00:59:32;;;;;;;;;;;26.00;99.90;;;;;;5094164;28;20212;-71
2023/08/26 01:02:00;;;;;;;;;;;25.90;99.90;;;;;;5094261;28;20160;-68
2023/08/26 01:04:27;;;;;;;;;;;25.80;99.90;;;;;;5093989;28;20630;-69
2023/08/26 01:06:54;;;;;;;;;;;25.90;99.90;;;;;;5094510;28;20226;-72
2023/08/26 01:09:21;;;;;;;;;;;26.00;99.90;;;;;;5093820;28;20169;-70
2023/08/26 01:12:01;;;;;;;;;;;26.60;99.90;;;;;;5075592;28;20175;-69
2023/08/26 01:14:27;;;;;;;;;;;26.30;99.90;;;;;;5093585;28;20176;-72
2023/08/26 01:16:54;;;;;;;;;;;25.80;99.90;;;;;;5093496;28;20157;-71
2023/08/26 01:19:38;;;;;;;;;;;25.70;99.90;;;;;;5093001;28;20207;-67
2023/08/26 01:22:08;;;;;;;;;;;25.80;99.90;;;;;;5093934;28;20153;-72
2023/08/26 01:24:35;;;;;;;;;;;26.10;99.90;;;;;;5094081;28;20171;-69
2023/08/26 01:27:02;;;;;;;;;;;25.70;99.90;;;;;;5093125;28;20195;-69
2023/08/26 01:29:29;;;;;;;;;;;26.10;99.90;;;;;;5092937;28;20260;-68
2023/08/26 01:32:22;;;;;;;;;;;26.60;98.20;;;;;;5093140;28;20247;-70
2023/08/26 01:34:51;;;;;;;;;;;26.60;95.80;;;;;;5103498;28;20168;-68
2023/08/26 01:37:18;;;;;;;;;;;26.50;96.70;;;;;;5093425;28;20188;-68
2023/08/26 01:39:46;;;;;;;;;;;26.00;98.60;;;;;;5092890;28;20191;-68
2023/08/26 01:42:15;;;;;;;;;;;26.00;97.10;;;;;;5092898;28;20155;-69
2023/08/26 01:44:54;;;;;;;;;;;26.30;98.40;;;;;;5092497;28;20631;-71
2023/08/26 01:47:20;;;;;;;;;;;26.80;92.50;;;;;;5093651;28;20703;-68
2023/08/26 01:49:47;;;;;;;;;;;25.80;94.40;;;;;;5092783;28;20207;-69
2023/08/26 01:52:14;;;;;;;;;;;25.70;99.60;;;;;;5092889;28;20535;-68
2023/08/26 01:54:41;;;;;;;;;;;26.60;92.00;;;;;;5093159;28;20262;-69
2023/08/26 01:57:08;;;;;;;;;;;26.20;90.40;;;;;;5093174;28;20176;-68
2023/08/26 01:59:34;;;;;;;;;;;25.90;92.30;;;;;;5092661;28;20180;-69
2023/08/26 02:02:01;;;;;;;;;;;25.50;93.70;;;;;;5092532;28;20180;-69
2023/08/26 02:04:28;;;;;;;;;;;24.20;98.90;;;;;;5093016;28;20173;-69
2023/08/26 02:06:54;;;;;;;;;;;23.10;99.90;;;;;;5092949;28;20662;-72
2023/08/26 02:09:21;;;;;;;;;;;23.10;99.90;;;;;;5092198;28;20181;-71
2023/08/26 02:11:48;;;;;;;;;;;23.40;99.90;;;;;;5092659;28;20163;-69
2023/08/26 02:20:07;;;;;;;;;;;26.50;99.90;;;;;;5091850;28;20226;-70
2023/08/26 02:22:34;;;;;;;;;;;27.00;94.80;;;;;;5092864;28;20229;-69
2023/08/26 02:25:00;;;;;;;;;;;27.10;94.60;;;;;;5092835;28;20171;-69
2023/08/26 02:27:27;;;;;;;;;;;27.20;93.90;;;;;;5093049;28;20175;-69
2023/08/26 02:29:54;;;;;;;;;;;27.40;91.20;;;;;;5092539;28;20171;-68
2023/08/26 02:32:20;;;;;;;;;;;26.80;91.30;;;;;;5092522;28;20226;-69
2023/08/26 02:34:47;;;;;;;;;;;26.00;94.90;;;;;;5092074;28;20565;-69
2023/08/26 02:37:14;;;;;;;;;;;25.10;97.10;;;;;;5092231;28;20177;-71
2023/08/26 02:39:40;;;;;;;;;;;24.30;99.90;;;;;;5110939;28;20208;-68
2023/08/26 02:42:07;;;;;;;;;;;23.60;99.90;;;;;;5096230;28;20167;-70
2023/08/26 02:44:34;;;;;;;;;;;23.20;99.90;;;;;;5096136;28;20172;-68
2023/08/26 02:47:07;;;;;;;;;;;22.70;99.90;;;;;;5097036;28;20241;-67
2023/08/26 02:49:33;;;;;;;;;;;22.50;99.90;;;;;;5078186;28;20185;-68
2023/08/26 02:52:00;;;;;;;;;;;22.20;99.90;;;;;;5096031;28;20183;-68
2023/08/26 02:54:27;;;;;;;;;;;21.90;99.90;;;;;;5096408;28;20162;-68
2023/08/26 02:56:54;;;;;;;;;;;21.80;99.90;;;;;;5096430;28;20187;-68
2023/08/26 02:59:20;;;;;;;;;;;22.20;99.90;;;;;;5095668;28;20659;-68
2023/08/26 03:01:47;;;;;;;;;;;22.80;99.90;;;;;;5095886;28;20548;-68
2023/08/26 03:04:14;;;;;;;;;;;23.70;99.90;;;;;;5095623;28;20238;-68
2023/08/26 03:06:40;;;;;;;;;;;24.50;99.90;;;;;;5096038;28;20206;-69
2023/08/26 03:09:07;;;;;;;;;;;25.10;99.90;;;;;;5096238;28;20171;-68
2023/08/26 03:11:34;;;;;;;;;;;25.70;99.90;;;;;;5096241;28;20151;-70
2023/08/26 03:14:00;;;;;;;;;;;26.30;99.90;;;;;;5096628;28;20181;-68
2023/08/26 03:16:27;;;;;;;;;;;26.80;95.90;;;;;;5095861;28;20177;-70
2023/08/26 03:18:54;;;;;;;;;;;27.20;94.60;;;;;;5095850;28;20224;-69
2023/08/26 03:21:21;;;;;;;;;;;27.50;91.60;;;;;;5095735;28;20235;-69
2023/08/26 03:23:47;;;;;;;;;;;27.70;86.40;;;;;;5095743;28;20557;-68
2023/08/26 03:26:14;;;;;;;;;;;27.30;86.90;;;;;;5095881;28;20524;-69
2023/08/26 03:28:41;;;;;;;;;;;27.60;89.00;;;;;;5095250;28;20184;-69
2023/08/26 03:31:07;;;;;;;;;;;27.00;88.50;;;;;;5094973;28;20222;-69
2023/08/26 03:33:34;;;;;;;;;;;26.50;87.00;;;;;;5095322;28;20143;-71
2023/08/26 03:36:05;;;;;;;;;;;26.10;92.70;;;;;;5095490;28;20489;-68
2023/08/26 03:38:32;;;;;;;;;;;26.10;92.90;;;;;;5095596;28;20161;-69
2023/08/26 03:40:58;;;;;;;;;;;26.10;92.50;;;;;;5095480;28;20188;-68
2023/08/26 03:43:25;;;;;;;;;;;26.30;94.90;;;;;;5095948;28;20260;-70
2023/08/26 03:45:52;;;;;;;;;;;26.50;93.00;;;;;;5096358;28;20568;-70
2023/08/26 03:48:18;;;;;;;;;;;26.30;93.50;;;;;;5095448;28;20175;-70
2023/08/26 03:50:52;;;;;;;;;;;26.60;93.00;;;;;;5094662;28;20181;-70
2023/08/26 03:53:19;;;;;;;;;;;26.70;85.90;;;;;;5095254;28;20166;-68
2023/08/26 03:55:46;;;;;;;;;;;26.90;81.20;;;;;;5095128;28;20170;-69
2023/08/26 03:58:13;;;;;;;;;;;26.50;85.90;;;;;;5094168;28;20147;-69
2023/08/26 04:00:40;;;;;;;;;;;26.40;92.40;;;;;;5094684;28;20262;-69
2023/08/26 04:03:06;;;;;;;;;;;26.40;91.10;;;;;;5094258;28;20138;-71
2023/08/26 04:05:34;;;;;;;;;;;26.10;91.30;;;;;;5110026;28;20260;-72
2023/08/26 04:08:01;;;;;;;;;;;25.80;93.20;;;;;;5094533;28;20225;-72
2023/08/26 04:10:27;;;;;;;;;;;25.50;97.70;;;;;;5076195;28;20180;-68
2023/08/26 04:12:57;;;;;;;;;;;24.80;99.90;;;;;;5094491;28;20139;-68
2023/08/26 04:15:24;;;;;;;;;;;24.80;99.90;;;;;;5094049;28;20275;-69
2023/08/26 04:17:51;;;;;;;;;;;24.30;99.90;;;;;;5094158;28;20143;-70
2023/08/26 04:20:18;;;;;;;;;;;23.60;99.90;;;;;;5092626;28;20213;-70
2023/08/26 04:22:47;;;;;;;;;;;23.00;99.90;;;;;;5094278;28;20168;-69
2023/08/26 04:25:14;;;;;;;;;;;22.70;99.90;;;;;;5109292;28;20268;-73
2023/08/26 04:27:41;;;;;;;;;;;22.50;99.90;;;;;;5094039;28;20172;-68
2023/08/26 04:30:11;;;;;;;;;;;22.90;99.90;;;;;;5093792;28;20155;-70
2023/08/26 04:32:38;;;;;;;;;;;23.20;99.90;;;;;;5093772;28;20212;-70
2023/08/26 04:35:05;;;;;;;;;;;23.40;99.90;;;;;;5094027;28;20145;-72
2023/08/26 04:37:31;;;;;;;;;;;23.20;99.90;;;;;;5094013;28;20167;-71
2023/08/26 04:39:58;;;;;;;;;;;22.40;99.90;;;;;;5094469;28;20234;-72
2023/08/26 04:42:25;;;;;;;;;;;22.30;99.90;;;;;;5094415;28;20156;-70
2023/08/26 04:44:51;;;;;;;;;;;22.70;99.90;;;;;;5094612;28;20142;-71
2023/08/26 04:47:22;;;;;;;;;;;22.70;99.90;;;;;;5094591;28;20227;-70
2023/08/26 04:49:52;;;;;;;;;;;22.50;99.90;;;;;;5094619;28;20534;-70
2023/08/26 04:52:18;;;;;;;;;;;22.10;99.90;;;;;;5094557;28;20258;-70
2023/08/26 04:54:45;;;;;;;;;;;21.50;99.90;;;;;;5094299;28;20501;-71
2023/08/26 04:57:12;;;;;;;;;;;21.50;99.90;;;;;;5094337;28;20268;-69
2023/08/26 04:59:38;;;;;;;;;;;21.60;99.90;;;;;;5093606;28;20276;-70
2023/08/26 05:02:07;;;;;;;;;;;21.50;99.90;;;;;;5092627;28;20180;-69
2023/08/26 05:04:37;;;;;;;;;;;21.20;99.90;;;;;;5096673;28;20163;-70
2023/08/26 05:07:04;;;;;;;;;;;21.20;99.90;;;;;;5112923;28;20182;-70
2023/08/26 05:09:31;;;;;;;;;;;21.30;99.90;;;;;;5096234;27;20144;-68
2023/08/26 05:11:58;;;;;;;;;;;21.50;99.90;;;;;;5093821;27;20278;-68
2023/08/26 05:14:24;;;;;;;;;;;21.40;99.90;;;;;;5112147;28;20116;-70
2023/08/26 05:16:51;;;;;;;;;;;21.60;99.90;;;;;;5112329;28;20188;-70
2023/08/26 05:19:18;;;;;;;;;;;21.50;99.90;;;;;;5111837;28;20556;-68
2023/08/26 05:21:44;;;;;;;;;;;21.50;99.90;;;;;;5111807;28;20177;-69
2023/08/26 05:24:11;;;;;;;;;;;21.60;99.90;;;;;;5112381;28;20534;-71
2023/08/26 05:26:38;;;;;;;;;;;21.70;99.90;;;;;;5112193;28;20166;-70
2023/08/26 05:29:05;;;;;;;;;;;21.60;99.90;;;;;;5112399;28;20146;-68
2023/08/26 05:31:31;;;;;;;;;;;21.50;99.90;;;;;;5112287;28;20169;-71
2023/08/26 05:33:58;;;;;;;;;;;21.40;99.90;;;;;;5112401;28;20167;-68
2023/08/26 05:36:25;;;;;;;;;;;21.20;99.90;;;;;;5111916;28;20156;-69
2023/08/26 05:38:54;;;;;;;;;;;21.00;99.90;;;;;;5112031;28;20228;-68
2023/08/26 05:41:21;;;;;;;;;;;20.90;99.90;;;;;;5112066;28;20680;-68
2023/08/26 05:43:49;;;;;;;;;;;21.00;99.90;;;;;;5112151;28;20161;-70
2023/08/26 05:46:16;;;;;;;;;;;21.10;99.90;;;;;;5112361;28;20190;-70
2023/08/26 05:48:43;;;;;;;;;;;21.20;99.90;;;;;;5114054;27;20295;-70
2023/08/26 05:51:09;;;;;;;;;;;21.10;99.90;;;;;;5109085;28;20162;-69
2023/08/26 05:53:39;;;;;;;;;;;20.90;99.90;;;;;;5111385;28;20171;-69
2023/08/26 05:56:06;;;;;;;;;;;20.80;99.90;;;;;;5111381;28;20143;-68
2023/08/26 05:58:33;;;;;;;;;;;20.80;99.90;;;;;;5111761;28;20206;-69
2023/08/26 06:00:59;;;;;;;;;;;20.90;99.90;;;;;;5111824;28;20240;-68
2023/08/26 06:03:26;;;;;;;;;;;20.80;99.90;;;;;;5118891;27;20189;-68
2023/08/26 06:05:53;;;;;;;;;;;20.70;99.90;;;;;;5118949;27;20174;-68
2023/08/26 06:08:19;;;;;;;;;;;20.60;99.90;;;;;;5120628;27;20160;-70
2023/08/26 06:10:46;;;;;;;;;;;20.30;99.90;;;;;;5128314;27;20189;-70
2023/08/26 06:13:16;;;;;;;;;;;20.20;99.90;;;;;;5131564;27;20357;-71
2023/08/26 06:15:43;;;;;;;;;;;20.00;99.90;;;;;;5116772;28;20177;-69
2023/08/26 06:18:10;;;;;;;;;;;20.00;99.90;;;;;;5126121;27;20210;-69
2023/08/26 06:20:36;;;;;;;;;;;19.80;99.90;;;;;;5111130;28;20202;-72
2023/08/26 06:23:03;;;;;;;;;;;19.80;99.90;;;;;;5113220;27;20227;-71
2023/08/26 06:25:30;;;;;;;;;;;19.80;99.90;;;;;;5111384;28;20153;-70
2023/08/26 06:27:57;;;;;;;;;;;19.80;99.90;;;;;;5111237;28;20241;-70
2023/08/26 06:30:24;;;;;;;;;;;19.70;99.90;;;;;;5110574;28;20174;-70
2023/08/26 06:32:51;;;;;;;;;;;19.50;99.90;;;;;;5110805;28;20169;-70
2023/08/26 06:35:24;;;;;;;;;;;19.50;99.90;;;;;;5111057;28;20221;-68
2023/08/26 06:37:51;;;;;;;;;;;19.50;99.90;;;;;;5111308;28;20171;-70
2023/08/26 06:40:17;;;;;;;;;;;19.50;99.90;;;;;;5111111;28;20217;-70
2023/08/26 06:42:44;;;;;;;;;;;19.50;99.90;;;;;;5111040;28;20528;-69
2023/08/26 06:45:11;;;;;;;;;;;19.40;99.90;;;;;;5111703;28;20243;-69
2023/08/26 06:47:39;;;;;;;;;;;19.40;99.90;;;;;;5110995;28;20151;-69
2023/08/26 06:50:08;;;;;;;;;;;19.30;99.90;;;;;;5111391;28;20162;-69
2023/08/26 06:52:34;;;;;;;;;;;19.30;99.90;;;;;;5111950;28;20165;-71
2023/08/26 06:55:01;;;;;;;;;;;19.30;99.90;;;;;;5112698;28;20124;-69
2023/08/26 06:57:28;;;;;;;;;;;19.20;99.90;;;;;;5112916;28;20175;-69
2023/08/26 06:59:54;;;;;;;;;;;19.00;99.90;;;;;;5112019;28;20209;-68
2023/08/26 07:02:21;;;;;;;;;;;18.90;99.90;;;;;;5112546;28;20249;-69
2023/08/26 07:04:48;;;;;;;;;;;18.90;99.90;;;;;;5112760;28;20152;-70
2023/08/26 07:07:14;;;;;;;;;;;18.80;99.90;;;;;;5112151;28;20152;-69
2023/08/26 07:09:42;;;;;;;;;;;18.60;99.90;;;;;;5112137;28;20221;-69
2023/08/26 07:12:08;;;;;;;;;;;18.50;99.90;;;;;;5111788;28;20178;-69
2023/08/26 07:14:35;;;;;;;;;;;18.40;99.90;;;;;;5111961;28;20559;-69
2023/08/26 07:17:02;;;;;;;;;;;18.30;99.90;;;;;;5119079;28;20254;-68
2023/08/26 07:19:28;;;;;;;;;;;18.20;99.90;;;;;;5111887;28;20208;-69
2023/08/26 07:21:55;;;;;;;;;;;18.00;99.90;;;;;;5112101;28;20161;-69
2023/08/26 07:24:24;;;;;;;;;;;17.90;99.90;;;;;;5112486;28;20538;-69
2023/08/26 07:26:51;;;;;;;;;;;17.80;99.90;;;;;;5115996;28;20158;-67
2023/08/26 07:29:18;;;;;;;;;;;17.70;99.90;;;;;;5116610;28;20590;-70
2023/08/26 07:31:44;;;;;;;;;;;17.60;99.90;;;;;;5115813;28;20169;-70
2023/08/26 07:34:11;;;;;;;;;;;17.50;99.90;;;;;;5116324;28;20217;-70
2023/08/26 07:36:38;;;;;;;;;;;17.40;99.90;;;;;;5096972;28;20184;-68
2023/08/26 07:39:05;;;;;;;;;;;17.30;99.90;;;;;;5115772;28;20139;-68
2023/08/26 07:41:31;;;;;;;;;;;17.20;99.90;;;;;;5116047;28;20224;-69
2023/08/26 07:43:58;;;;;;;;;;;17.10;99.90;;;;;;5097028;28;20562;-71
2023/08/26 07:46:25;;;;;;;;;;;17.10;99.90;;;;;;5115416;28;20491;-68
2023/08/26 07:48:52;;;;;;;;;;;17.00;99.90;;;;;;5115664;28;20138;-70
2023/08/26 07:51:18;;;;;;;;;;;16.90;99.90;;;;;;5116202;28;20512;-69
2023/08/26 07:53:45;;;;;;;;;;;16.80;99.90;;;;;;5115392;28;20186;-71
2023/08/26 07:56:12;;;;;;;;;;;16.70;99.90;;;;;;5116036;28;20168;-71
2023/08/26 07:58:39;;;;;;;;;;;16.60;99.90;;;;;;5114675;28;20147;-70
2023/08/26 08:01:06;;;;;;;;;;;16.50;99.90;;;;;;5097492;27;20198;-69
2023/08/26 08:03:32;;;;;;;;;;;16.50;99.90;;;;;;5114182;28;20549;-71
2023/08/26 08:05:59;;;;;;;;;;;16.40;99.90;;;;;;5122776;27;20473;-72
2023/08/26 08:08:26;;;;;;;;;;;16.30;99.90;;;;;;5114764;27;20154;-71
2023/08/26 08:10:52;;;;;;;;;;;16.20;99.90;;;;;;5121980;27;20160;-71
2023/08/26 08:13:19;;;;;;;;;;;16.00;99.90;;;;;;5119789;27;20147;-70
2023/08/26 08:15:46;;;;;;;;;;;16.00;99.90;;;;;;5114205;28;20190;-72
2023/08/26 08:18:13;;;;;;;;;;;15.90;99.90;;;;;;5113667;28;20155;-71
2023/08/26 08:20:39;;;;;;;;;;;15.90;99.90;;;;;;5113656;28;20264;-71
2023/08/26 08:23:06;;;;;;;;;;;15.80;99.90;;;;;;5113716;28;20602;-72
2023/08/26 08:25:33;;;;;;;;;;;15.70;99.90;;;;;;5095792;28;20201;-71
2023/08/26 08:28:01;;;;;;;;;;;15.70;99.90;;;;;;5113985;28;20165;-71
2023/08/26 08:30:27;;;;;;;;;;;15.60;99.90;;;;;;5113632;28;20248;-70
2023/08/26 08:32:54;;;;;;;;;;;15.60;99.90;;;;;;5113766;28;20138;-71
2023/08/26 08:35:21;;;;;;;;;;;15.60;99.90;;;;;;5116505;27;20544;-70
2023/08/26 08:37:47;;;;;;;;;;;15.50;99.90;;;;;;5113001;28;20148;-68
2023/08/26 08:40:15;;;;;;;;;;;15.50;99.90;;;;;;5113541;28;20284;-69
2023/08/26 08:42:42;;;;;;;;;;;15.50;99.90;;;;;;5113733;28;20220;-68
2023/08/26 08:45:09;;;;;;;;;;;15.50;99.90;;;;;;5113303;28;20162;-69
2023/08/26 08:47:36;;;;;;;;;;;15.50;99.90;;;;;;5113433;28;20259;-71
2023/08/26 08:50:03;;;;;;;;;;;15.40;99.90;;;;;;5113492;28;20197;-69
2023/08/26 08:52:33;;;;;;;;;;;15.30;99.90;;;;;;5112789;27;20537;-70
2023/08/26 08:54:59;;;;;;;;;;;15.20;99.90;;;;;;5094427;28;20142;-69
2023/08/26 08:57:30;;;;;;;;;;;15.20;99.90;;;;;;5112391;28;20483;-70
2023/08/26 08:59:58;;;;;;;;;;;15.10;99.90;;;;;;5112986;28;20190;-68
2023/08/26 09:02:25;;;;;;;;;;;15.10;99.90;;;;;;5112974;28;20666;-69
2023/08/26 09:04:52;;;;;;;;;;;15.00;99.90;;;;;;5112928;28;20164;-69
2023/08/26 09:07:20;;;;;;;;;;;14.90;99.90;;;;;;5112439;28;20198;-68
2023/08/26 09:09:47;;;;;;;;;;;14.80;99.90;;;;;;5112773;28;20255;-69
2023/08/26 09:12:13;;;;;;;;;;;14.80;99.90;;;;;;5112759;28;20546;-69
2023/08/26 09:14:40;;;;;;;;;;;14.70;99.90;;;;;;5118780;27;20145;-68
2023/08/26 09:17:17;;;;;;;;;;;14.60;99.90;;;;;;5126201;27;20153;-70
2023/08/26 09:19:58;;;;;;;;;;;14.60;99.90;;;;;;5115205;27;20202;-69
2023/08/26 09:22:28;;;;;;;;;;;14.50;99.90;;;;;;5121189;27;20154;-69
2023/08/26 09:24:58;;;;;;;;;;;14.40;99.90;;;;;;5094212;28;20163;-68
2023/08/26 09:27:25;;;;;;;;;;;14.40;99.90;;;;;;5113795;28;20154;-69
2023/08/26 09:29:52;;;;;;;;;;;14.30;99.90;;;;;;5114081;28;20466;-69
2023/08/26 09:32:36;;;;;;;;;;;14.30;99.90;;;;;;5093715;28;20259;-69
2023/08/26 09:35:12;;;;;;;;;;;14.30;99.90;;;;;;5093484;28;20159;-70
2023/08/26 09:37:40;;;;;;;;;;;14.20;99.90;;;;;;5101068;28;20161;-69
2023/08/26 09:40:07;;;;;;;;;;;14.20;99.90;;;;;;5113814;28;20282;-70
2023/08/26 09:42:34;;;;;;;;;;;14.20;99.90;;;;;;5095798;28;20448;-68
2023/08/26 09:45:02;;;;;;;;;;;14.10;99.90;;;;;;5095235;28;20153;-69
2023/08/26 09:47:29;;;;;;;;;;;14.10;99.90;;;;;;5115152;27;20610;-69
2023/08/26 09:49:56;;;;;;;;;;;14.00;99.90;;;;;;5121814;27;20142;-70
2023/08/26 09:52:23;;;;;;;;;;;14.00;99.90;;;;;;5123228;27;20158;-69
2023/08/26 09:54:52;;;;;;;;;;;13.90;99.90;;;;;;5122699;27;20165;-69
2023/08/26 09:57:18;;;;;;;;;;;13.90;99.90;;;;;;5123323;27;20148;-70
2023/08/26 09:59:45;;;;;;;;;;;13.90;99.90;;;;;;5122652;27;20170;-69
2023/08/26 10:02:24;;;;;;;;;;;13.90;99.90;;;;;;5104084;27;20155;-69
2023/08/26 10:04:55;;;;;;;;;;;13.80;99.90;;;;;;5122449;27;20161;-68
2023/08/26 10:07:25;;;;;;;;;;;13.80;99.90;;;;;;5122354;27;20164;-70
2023/08/26 10:10:09;;;;;;;;;;;13.80;99.90;;;;;;5127775;27;20160;-69
2023/08/26 10:12:42;;;;;;;;;;;13.70;99.90;;;;;;5134123;27;20336;-69
2023/08/26 10:15:12;;;;;;;;;;;13.60;99.90;;;;;;5129254;27;20157;-70
2023/08/26 10:17:41;;;;;;;;;;;13.60;99.90;;;;;;5112771;28;20298;-70
2023/08/26 10:20:08;;;;;;;;;;;13.60;99.90;;;;;;5098233;28;20979;-68
2023/08/26 10:22:36;;;;;;;;;;;13.50;99.90;;;;;;5105102;28;20648;-70
2023/08/26 10:25:04;;;;;;;;;;;13.50;99.90;;;;;;5111129;28;20168;-69
2023/08/26 10:27:31;;;;;;;;;;;13.40;99.90;;;;;;5111080;28;20187;-69
2023/08/26 10:29:59;;;;;;;;;;;13.40;99.90;;;;;;5110736;28;20157;-69
2023/08/26 10:32:28;;;;;;;;;;;13.40;99.90;;;;;;5111411;28;20149;-70
2023/08/26 10:34:55;;;;;;;;;;;13.30;99.90;;;;;;5110805;28;20171;-69
2023/08/26 10:37:26;;;;;;;;;;;13.30;99.90;;;;;;5090986;28;20157;-69
2023/08/26 10:39:54;;;;;;;;;;;13.30;99.90;;;;;;5090726;28;20613;-69
2023/08/26 10:42:23;;;;;;;;;;;13.30;99.90;;;;;;5091193;28;20177;-69
2023/08/26 10:44:57;;;;;;;;;;;13.30;99.90;;;;;;5109726;28;20182;-70
2023/08/26 10:47:38;;;;;;;;;;;13.30;99.90;;;;;;5111024;28;20171;-69
2023/08/26 10:50:25;;;;;;;;;;;13.30;99.90;;;;;;5111003;28;20159;-70
2023/08/26 10:52:53;;;;;;;;;;;13.30;99.90;;;;;;5111126;28;20244;-68
2023/08/26 10:55:27;;;;;;;;;;;13.40;99.90;;;;;;5110804;28;20278;-69
2023/08/26 10:58:03;;;;;;;;;;;13.50;99.90;;;;;;5110957;28;20235;-68
2023/08/26 11:00:29;;;;;;;;;;;13.60;99.90;;;;;;5113608;28;20172;-69
2023/08/26 11:02:59;;;;;;;;;;;13.60;99.90;;;;;;5114454;28;20200;-69
2023/08/26 11:05:26;;;;;;;;;;;13.70;99.90;;;;;;5115301;28;20211;-69
2023/08/26 11:07:53;;;;;;;;;;;13.70;99.90;;;;;;5114675;28;20179;-69
2023/08/26 11:10:27;;;;;;;;;;;13.60;99.90;;;;;;5114302;28;20213;-70
2023/08/26 11:12:54;;;;;;;;;;;13.60;99.90;;;;;;5114913;28;20163;-68
2023/08/26 11:15:21;;;;;;;;;;;13.60;99.90;;;;;;5114659;28;20190;-69
2023/08/26 11:17:54;;;;;;;;;;;13.70;99.90;;;;;;5114737;28;20652;-69
2023/08/26 11:20:20;;;;;;;;;;;13.60;99.90;;;;;;5114382;28;20212;-69
2023/08/26 11:22:49;;;;;;;;;;;13.60;99.90;;;;;;5114926;28;20607;-69
2023/08/26 11:25:17;;;;;;;;;;;13.60;99.90;;;;;;5096028;28;20189;-69
2023/08/26 11:27:47;;;;;;;;;;;13.70;99.90;;;;;;5114689;28;20140;-70
2023/08/26 11:30:13;;;;;;;;;;;13.70;99.90;;;;;;5114036;28;20575;-69
2023/08/26 11:32:41;;;;;;;;;;;13.70;99.90;;;;;;5114552;28;20046;-71
2023/08/26 11:35:09;;;;;;;;;;;13.70;99.90;;;;;;5114612;28;20172;-70
2023/08/26 11:37:36;;;;;;;;;;;13.80;99.90;;;;;;5095715;28;20187;-73
2023/08/26 11:40:06;;;;;;;;;;;13.80;99.90;;;;;;5114196;28;20245;-70
2023/08/26 11:42:33;;;;;;;;;;;13.80;99.90;;;;;;5114158;28;20620;-70
2023/08/26 11:45:03;;;;;;;;;;;13.80;99.90;;;;;;5114081;28;20169;-71
2023/08/26 11:47:30;;;;;;;;;;;13.90;99.90;;;;;;5114094;28;20621;-72
2023/08/26 11:49:57;;;;;;;;;;;13.90;99.90;;;;;;5113981;28;20189;-69
2023/08/26 11:52:31;;;;;;;;;;;14.00;99.90;;;;;;5095508;28;20652;-70
2023/08/26 11:54:58;;;;;;;;;;;14.00;99.90;;;;;;5113864;28;20562;-70
2023/08/26 11:57:25;;;;;;;;;;;14.00;99.90;;;;;;5114046;28;20180;-71
2023/08/26 11:59:52;;;;;;;;;;;14.00;99.90;;;;;;5113621;28;20177;-69
2023/08/26 12:02:22;;;;;;;;;;;14.00;99.90;;;;;;5114266;28;20160;-69
2023/08/26 12:04:58;;;;;;;;;;;14.10;99.90;;;;;;5114644;28;20151;-69
2023/08/26 12:07:25;;;;;;;;;;;14.10;99.90;;;;;;5095905;28;20632;-68
2023/08/26 12:09:52;;;;;;;;;;;14.10;99.90;;;;;;5113965;28;20251;-68
2023/08/26 12:12:22;;;;;;;;;;;14.10;99.90;;;;;;5113462;28;20027;-69
2023/08/26 12:14:49;;;;;;;;;;;14.10;99.90;;;;;;5114784;28;20616;-68
2023/08/26 12:17:16;;;;;;;;;;;14.00;99.90;;;;;;5114870;28;20224;-68
2023/08/26 12:19:43;;;;;;;;;;;14.00;99.90;;;;;;5114650;28;20250;-69
2023/08/26 12:22:11;;;;;;;;;;;14.00;99.90;;;;;;5114514;28;20149;-69
2023/08/26 12:24:38;;;;;;;;;;;13.90;99.90;;;;;;5114388;28;20159;-69
2023/08/26 12:27:11;;;;;;;;;;;13.90;99.90;;;;;;5114572;28;20163;-69
2023/08/26 12:29:38;;;;;;;;;;;13.80;99.90;;;;;;5114122;28;20566;-68
2023/08/26 12:32:05;;;;;;;;;;;13.80;99.90;;;;;;5096502;28;20150;-68
2023/08/26 12:34:32;;;;;;;;;;;13.70;99.90;;;;;;5095321;28;20152;-68
2023/08/26 12:36:59;;;;;;;;;;;13.80;99.90;;;;;;5095952;28;20231;-68
2023/08/26 12:39:26;;;;;;;;;;;13.80;99.90;;;;;;5114312;28;20158;-68
2023/08/26 12:41:53;;;;;;;;;;;13.70;99.90;;;;;;5095496;28;20678;-68
2023/08/26 12:44:21;;;;;;;;;;;13.80;99.90;;;;;;5113779;28;20165;-68
2023/08/26 12:46:48;;;;;;;;;;;13.70;99.90;;;;;;5114056;28;20148;-69
2023/08/26 12:49:15;;;;;;;;;;;13.60;99.90;;;;;;5113816;28;20175;-68
2023/08/26 12:51:41;;;;;;;;;;;13.50;99.90;;;;;;5113547;28;20158;-68
2023/08/26 12:54:08;;;;;;;;;;;13.50;99.90;;;;;;5095267;28;20157;-68
2023/08/26 12:56:35;;;;;;;;;;;13.40;99.90;;;;;;5095253;28;20546;-68
2023/08/26 12:59:02;;;;;;;;;;;13.30;99.90;;;;;;5113965;28;20175;-68
2023/08/26 13:01:28;;;;;;;;;;;13.20;99.90;;;;;;5113972;28;20627;-68
2023/08/26 13:03:55;;;;;;;;;;;13.10;99.90;;;;;;5113685;28;20163;-68
2023/08/26 13:06:22;;;;;;;;;;;13.00;99.90;;;;;;5113946;28;20227;-68
2023/08/26 13:08:48;;;;;;;;;;;12.90;99.90;;;;;;5113829;28;20263;-68
2023/08/26 13:11:15;;;;;;;;;;;12.90;99.90;;;;;;5114160;28;20136;-68
2023/08/26 13:13:42;;;;;;;;;;;12.90;99.90;;;;;;5113541;28;20234;-68
2023/08/26 13:16:09;;;;;;;;;;;12.90;99.90;;;;;;5095965;28;20159;-68
2023/08/26 13:18:42;;;;;;;;;;;12.70;99.90;;;;;;5113484;28;20143;-68
2023/08/26 13:21:09;;;;;;;;;;;12.70;99.90;;;;;;5113508;28;20189;-68
2023/08/26 13:23:36;;;;;;;;;;;12.70;99.90;;;;;;5112442;28;20022;-67
2023/08/26 13:26:03;;;;;;;;;;;12.60;99.90;;;;;;5113247;28;20048;-68
2023/08/26 13:28:29;;;;;;;;;;;12.50;99.90;;;;;;5112972;28;20174;-68
2023/08/26 13:30:56;;;;;;;;;;;12.50;99.90;;;;;;5112636;28;20167;-68
2023/08/26 13:33:23;;;;;;;;;;;12.50;99.90;;;;;;5113401;28;20204;-68
2023/08/26 13:35:50;;;;;;;;;;;12.50;99.90;;;;;;5113508;28;20159;-68
2023/08/26 13:38:17;;;;;;;;;;;12.50;99.90;;;;;;5113331;28;20163;-68
2023/08/26 13:40:43;;;;;;;;;;;12.50;99.90;;;;;;5113449;28;20178;-68
2023/08/26 13:43:10;;;;;;;;;;;12.40;99.90;;;;;;5113886;28;20486;-68
2023/08/26 13:45:37;;;;;;;;;;;12.30;99.90;;;;;;5112876;28;20626;-68
2023/08/26 13:48:03;;;;;;;;;;;12.30;99.90;;;;;;5113243;28;20607;-68
2023/08/26 13:50:30;;;;;;;;;;;12.30;99.90;;;;;;5112704;28;20564;-68
2023/08/26 13:52:57;;;;;;;;;;;12.40;99.90;;;;;;5113201;28;20291;-67
2023/08/26 13:55:23;;;;;;;;;;;12.30;99.90;;;;;;5113317;28;20167;-68
2023/08/26 13:57:50;;;;;;;;;;;12.20;99.90;;;;;;5112979;28;20150;-68
2023/08/26 14:00:17;;;;;;;;;;;12.20;99.90;;;;;;5113327;28;20225;-67
2023/08/26 14:02:43;;;;;;;;;;;12.20;99.90;;;;;;5112933;28;20159;-68
2023/08/26 14:05:13;;;;;;;;;;;12.10;99.90;;;;;;5112735;28;20153;-68
2023/08/26 14:07:42;;;;;;;;;;;12.10;99.90;;;;;;5112396;28;20160;-67
2023/08/26 14:10:09;;;;;;;;;;;12.00;99.90;;;;;;5093832;28;20084;-68
2023/08/26 14:12:38;;;;;;;;;;;12.00;99.90;;;;;;5094594;28;20231;-68
2023/08/26 14:15:07;;;;;;;;;;;11.90;99.90;;;;;;5112698;28;20216;-68
2023/08/26 14:17:34;;;;;;;;;;;11.90;99.90;;;;;;5112779;28;20231;-68
2023/08/26 14:20:00;;;;;;;;;;;11.80;99.90;;;;;;5093977;28;20197;-68
2023/08/26 14:22:27;;;;;;;;;;;11.80;99.90;;;;;;5112081;28;20162;-68
2023/08/26 14:24:54;;;;;;;;;;;11.70;99.90;;;;;;5112518;28;20231;-68